Terminal Aerodrome Forecast
Issued by NWS Louisville, KY

Home | Current Version | Previous Version | Text Only | Print | Product List | Glossary On
Versions: 1 2 3 4 5 6 7 8 9 10 11 12 13 14 15 16
515
FTUS43 KLMK 192326
TAFSDF
TAF
KSDF 192326Z 2000/2106 VRB04KT P6SM FEW060 FEW150
     FM201500 25004KT P6SM FEW060 FEW200=

USA.gov is the U.S. government's official web portal to all federal, state and local government web resources and services.